Time;durP1;ratioP1;P1;durP2;ratioP2;P2;SDS_P1;SDS_P2;PMS_P1;PMS_P2;Temp;Humidity;BMP_temperature;BMP_pressure;BME280_temperature;BME280_humidity;BME280_pressure;Samples;Min_cycle;Max_cycle;Signal;HPM_P1;HPM_P2
2022/01/17 00:01:48;;;;;;;;;;;6.40;99.90;;;;;;5158543;27;19934;-85
2022/01/17 00:04:32;;;;;;;;;;;6.90;99.90;;;;;;5159073;27;19953;-85
2022/01/17 00:07:16;;;;;;;;;;;6.90;99.90;;;;;;5143199;27;19962;-85
2022/01/17 00:10:04;;;;;;;;;;;6.10;99.90;;;;;;5158359;27;19918;-85
2022/01/17 00:12:51;;;;;;;;;;;5.90;99.90;;;;;;5142615;27;20051;-85
2022/01/17 00:15:47;;;;;;;;;;;6.20;99.90;;;;;;5158852;27;19960;-84
2022/01/17 00:21:21;;;;;;;;;;;5.70;99.90;;;;;;5143954;27;20282;-84
2022/01/17 00:24:05;;;;;;;;;;;5.30;99.90;;;;;;5142396;27;20377;-85
2022/01/17 00:26:52;;;;;;;;;;;5.30;99.90;;;;;;5158086;27;19918;-85
2022/01/17 00:29:36;;;;;;;;;;;5.20;99.90;;;;;;5142796;27;19918;-85
2022/01/17 00:32:20;;;;;;;;;;;5.20;99.90;;;;;;5158240;27;19959;-85
2022/01/17 00:35:05;;;;;;;;;;;5.70;99.90;;;;;;5142219;27;19918;-85
2022/01/17 00:37:49;;;;;;;;;;;5.20;99.90;;;;;;5142193;27;19918;-85
2022/01/17 00:40:33;;;;;;;;;;;6.20;99.90;;;;;;5142650;27;20370;-85
2022/01/17 00:43:17;;;;;;;;;;;5.20;99.90;;;;;;5158277;27;19959;-85
2022/01/17 00:46:01;;;;;;;;;;;6.60;99.90;;;;;;5157781;27;19917;-85
2022/01/17 00:48:45;;;;;;;;;;;5.80;99.90;;;;;;5158072;27;19960;-86
2022/01/17 00:51:30;;;;;;;;;;;5.40;99.90;;;;;;5142249;27;19922;-85
2022/01/17 00:54:14;;;;;;;;;;;5.20;99.90;;;;;;5157517;27;19918;-85
2022/01/17 00:56:58;;;;;;;;;;;6.10;99.90;;;;;;5157480;27;19965;-85
2022/01/17 00:59:43;;;;;;;;;;;6.40;99.90;;;;;;5157923;27;19965;-85
2022/01/17 01:02:27;;;;;;;;;;;6.00;99.90;;;;;;5142346;27;19918;-85
2022/01/17 01:05:11;;;;;;;;;;;6.40;99.90;;;;;;5157361;27;20176;-85
2022/01/17 01:07:55;;;;;;;;;;;5.30;99.90;;;;;;5127148;27;19917;-85
2022/01/17 01:10:39;;;;;;;;;;;5.30;99.90;;;;;;5156604;27;19929;-85
2022/01/17 01:13:27;;;;;;;;;;;6.20;99.90;;;;;;5157663;27;19919;-85
2022/01/17 01:27:57;;;;;;;;;;;5.30;99.90;;;;;;5157364;27;20044;-85
2022/01/17 01:30:46;;;;;;;;;;;5.30;99.90;;;;;;5141684;27;19964;-85
2022/01/17 01:33:37;;;;;;;;;;;5.30;99.90;;;;;;5127581;27;20001;-84
2022/01/17 01:36:27;;;;;;;;;;;5.80;99.90;;;;;;5108930;27;20266;-85
2022/01/17 01:39:11;;;;;;;;;;;5.30;99.90;;;;;;5135929;27;19956;-85
2022/01/17 01:41:55;;;;;;;;;;;6.00;99.90;;;;;;5136432;27;19949;-85
2022/01/17 01:44:39;;;;;;;;;;;5.40;99.90;;;;;;5136245;27;19914;-85
2022/01/17 01:47:25;;;;;;;;;;;6.50;99.90;;;;;;5120847;27;19918;-85
2022/01/17 01:50:10;;;;;;;;;;;6.50;99.90;;;;;;5120214;27;20375;-85
2022/01/17 01:52:54;;;;;;;;;;;5.30;99.90;;;;;;5136031;27;19918;-85
2022/01/17 01:55:39;;;;;;;;;;;6.80;99.90;;;;;;5136071;27;20451;-85
2022/01/17 01:58:24;;;;;;;;;;;6.30;99.90;;;;;;5120006;27;19918;-85
2022/01/17 02:01:08;;;;;;;;;;;5.20;99.90;;;;;;5119985;27;19918;-85
2022/01/17 02:03:52;;;;;;;;;;;5.20;99.90;;;;;;5120460;27;19917;-85
2022/01/17 02:06:37;;;;;;;;;;;5.70;99.90;;;;;;5120290;27;19918;-85
2022/01/17 02:09:23;;;;;;;;;;;5.10;99.90;;;;;;5135465;27;19936;-85
2022/01/17 02:12:08;;;;;;;;;;;5.10;99.90;;;;;;5119700;27;19919;-85
2022/01/17 02:14:54;;;;;;;;;;;5.10;99.90;;;;;;5120237;27;19917;-85
2022/01/17 02:17:44;;;;;;;;;;;5.10;99.90;;;;;;5135687;27;19914;-85
2022/01/17 02:20:40;;;;;;;;;;;6.20;99.90;;;;;;5120165;27;19952;-85
2022/01/17 02:23:25;;;;;;;;;;;6.20;99.90;;;;;;5134904;27;20321;-85
2022/01/17 02:26:10;;;;;;;;;;;5.80;99.90;;;;;;5105084;27;20371;-85
2022/01/17 02:28:55;;;;;;;;;;;6.10;99.90;;;;;;5120022;27;19928;-85
2022/01/17 02:31:39;;;;;;;;;;;6.10;99.90;;;;;;5135286;27;19972;-85
2022/01/17 02:34:23;;;;;;;;;;;4.90;99.90;;;;;;5113406;28;19926;-85
2022/01/17 02:37:08;;;;;;;;;;;4.80;99.90;;;;;;5113313;28;19914;-85
2022/01/17 02:39:52;;;;;;;;;;;5.20;99.90;;;;;;5114736;28;19954;-85
2022/01/17 02:42:37;;;;;;;;;;;6.80;99.90;;;;;;5099307;28;19985;-85
2022/01/17 02:46:24;;;;;;;;;;;4.80;99.90;;;;;;5114213;28;19918;-85
2022/01/17 02:48:39;;;;;;;;;;;6.40;99.90;;;;;;5114267;28;19980;-85
2022/01/17 02:51:23;;;;;;;;;;;4.80;99.90;;;;;;5114057;28;19938;-86
2022/01/17 02:54:07;;;;;;;;;;;6.30;99.90;;;;;;5113324;28;19915;-85
2022/01/17 02:56:51;;;;;;;;;;;4.80;99.90;;;;;;5115743;28;19994;-85
2022/01/17 02:59:38;;;;;;;;;;;4.80;99.90;;;;;;5115363;28;19919;-85
2022/01/17 03:02:22;;;;;;;;;;;6.50;99.90;;;;;;5115488;28;19941;-85
2022/01/17 03:05:07;;;;;;;;;;;6.80;99.90;;;;;;5115929;28;19922;-85
2022/01/17 03:07:52;;;;;;;;;;;6.10;99.90;;;;;;5116560;28;19915;-86
2022/01/17 03:10:43;;;;;;;;;;;4.80;99.90;;;;;;5114750;28;19966;-85
2022/01/17 03:13:32;;;;;;;;;;;5.80;99.90;;;;;;5113666;28;19922;-85
2022/01/17 03:16:18;;;;;;;;;;;4.80;99.90;;;;;;5113609;28;20328;-85
2022/01/17 03:19:02;;;;;;;;;;;6.00;99.90;;;;;;5113981;28;19915;-85
2022/01/17 03:21:46;;;;;;;;;;;6.30;99.90;;;;;;5112911;28;19919;-85
2022/01/17 03:24:30;;;;;;;;;;;6.70;99.90;;;;;;5098129;28;19938;-85
2022/01/17 03:27:14;;;;;;;;;;;4.90;99.90;;;;;;5098138;28;19958;-85
2022/01/17 03:29:59;;;;;;;;;;;4.80;99.90;;;;;;5113984;28;20383;-85
2022/01/17 03:32:43;;;;;;;;;;;4.80;99.90;;;;;;5119272;27;19993;-85
2022/01/17 03:35:27;;;;;;;;;;;6.90;99.90;;;;;;5133179;27;19926;-85
2022/01/17 03:38:13;;;;;;;;;;;4.90;99.90;;;;;;5134281;27;19913;-85
2022/01/17 03:40:58;;;;;;;;;;;5.40;99.90;;;;;;5118843;27;20411;-85
2022/01/17 03:43:42;;;;;;;;;;;5.70;99.90;;;;;;5134286;27;19919;-85
2022/01/17 03:46:27;;;;;;;;;;;5.80;99.90;;;;;;5133640;27;19955;-85
2022/01/17 03:49:11;;;;;;;;;;;6.40;99.90;;;;;;5134201;27;19926;-85
2022/01/17 03:51:55;;;;;;;;;;;5.70;99.90;;;;;;5133933;28;20282;-85
2022/01/17 03:54:39;;;;;;;;;;;6.30;99.90;;;;;;5117993;28;19929;-85
2022/01/17 03:57:23;;;;;;;;;;;5.10;99.90;;;;;;5133710;28;19918;-85
2022/01/17 04:00:08;;;;;;;;;;;5.60;99.90;;;;;;5134123;28;20389;-85
2022/01/17 04:02:53;;;;;;;;;;;5.20;99.90;;;;;;5133923;28;19961;-86
2022/01/17 04:05:37;;;;;;;;;;;5.20;99.90;;;;;;5133465;28;20294;-85
2022/01/17 04:08:22;;;;;;;;;;;5.20;99.90;;;;;;5117877;28;20310;-86
2022/01/17 04:11:06;;;;;;;;;;;5.20;99.90;;;;;;5133940;28;19914;-85
2022/01/17 04:13:50;;;;;;;;;;;5.30;99.90;;;;;;5118225;28;19918;-85
2022/01/17 04:16:34;;;;;;;;;;;5.20;99.90;;;;;;5103378;28;20011;-85
2022/01/17 04:19:20;;;;;;;;;;;6.60;99.90;;;;;;5133752;28;19914;-85
2022/01/17 04:22:04;;;;;;;;;;;5.90;99.90;;;;;;5133893;28;19914;-85
2022/01/17 04:24:49;;;;;;;;;;;6.70;99.90;;;;;;5133677;28;20412;-85
2022/01/17 04:27:33;;;;;;;;;;;6.90;99.90;;;;;;5117717;28;19957;-86
2022/01/17 04:30:17;;;;;;;;;;;5.20;99.90;;;;;;5118202;28;19917;-85
2022/01/17 04:33:01;;;;;;;;;;;5.30;99.90;;;;;;5133450;28;19964;-85
2022/01/17 04:35:46;;;;;;;;;;;6.30;99.90;;;;;;5117637;28;19921;-85
2022/01/17 04:38:30;;;;;;;;;;;5.30;99.90;;;;;;5117602;28;19915;-85
2022/01/17 04:41:17;;;;;;;;;;;5.20;99.90;;;;;;5133519;28;19915;-85
2022/01/17 04:45:07;;;;;;;;;;;6.70;99.90;;;;;;5133689;28;20374;-86
2022/01/17 04:47:06;;;;;;;;;;;5.30;99.90;;;;;;5137207;27;19960;-85
2022/01/17 04:49:50;;;;;;;;;;;6.20;99.90;;;;;;5121681;27;19917;-85
2022/01/17 04:52:36;;;;;;;;;;;5.30;99.90;;;;;;5121224;27;20048;-86
2022/01/17 04:55:20;;;;;;;;;;;5.30;99.90;;;;;;5121730;27;20386;-86
2022/01/17 04:58:04;;;;;;;;;;;5.40;99.90;;;;;;5137151;27;19915;-86
2022/01/17 05:00:49;;;;;;;;;;;5.50;99.90;;;;;;5136653;27;19915;-86
2022/01/17 05:03:33;;;;;;;;;;;5.50;99.90;;;;;;5136754;27;20419;-85
2022/01/17 05:06:17;;;;;;;;;;;6.00;99.90;;;;;;5121417;27;19925;-85
2022/01/17 05:09:02;;;;;;;;;;;6.80;99.90;;;;;;5106877;27;20321;-86
2022/01/17 05:11:47;;;;;;;;;;;5.60;99.90;;;;;;5120806;27;20250;-85
2022/01/17 05:14:31;;;;;;;;;;;7.40;99.90;;;;;;5120822;27;20022;-86
2022/01/17 05:17:39;;;;;;;;;;;5.70;99.90;;;;;;5121313;27;19918;-86
2022/01/17 05:20:23;;;;;;;;;;;5.70;99.90;;;;;;5124758;27;20272;-86
2022/01/17 05:23:07;;;;;;;;;;;6.40;99.90;;;;;;5136640;27;19941;-86
2022/01/17 05:25:51;;;;;;;;;;;5.80;99.90;;;;;;5136164;27;20271;-87
2022/01/17 05:28:36;;;;;;;;;;;5.90;99.90;;;;;;5120543;27;19946;-86
2022/01/17 05:31:20;;;;;;;;;;;7.00;99.90;;;;;;5120948;27;19918;-86
2022/01/17 05:34:04;;;;;;;;;;;5.90;99.90;;;;;;5121169;27;19925;-86
2022/01/17 05:36:48;;;;;;;;;;;5.90;99.90;;;;;;5120346;27;19915;-86
2022/01/17 05:39:33;;;;;;;;;;;7.50;99.90;;;;;;5120485;27;19919;-86
2022/01/17 05:42:18;;;;;;;;;;;6.90;99.90;;;;;;5120849;27;19983;-86
2022/01/17 05:45:03;;;;;;;;;;;6.90;99.90;;;;;;5136427;27;19960;-86
2022/01/17 05:47:47;;;;;;;;;;;6.00;99.90;;;;;;5120209;27;20400;-86
2022/01/17 05:50:31;;;;;;;;;;;7.60;99.90;;;;;;5120699;27;19914;-86
2022/01/17 05:53:16;;;;;;;;;;;6.00;99.90;;;;;;5136212;27;19923;-85
2022/01/17 05:56:00;;;;;;;;;;;6.00;99.90;;;;;;5135989;27;19914;-86
2022/01/17 05:58:44;;;;;;;;;;;6.10;99.90;;;;;;5135140;27;19955;-86
2022/01/17 06:01:28;;;;;;;;;;;6.10;99.90;;;;;;5123187;27;19925;-86
2022/01/17 06:04:12;;;;;;;;;;;6.20;99.90;;;;;;5156647;27;20320;-86
2022/01/17 06:06:57;;;;;;;;;;;6.20;99.90;;;;;;5140370;27;20390;-86
2022/01/17 06:09:42;;;;;;;;;;;8.00;99.90;;;;;;5140273;27;20002;-86
2022/01/17 06:12:26;;;;;;;;;;;6.10;99.90;;;;;;5140768;27;20010;-86
2022/01/17 06:15:10;;;;;;;;;;;6.10;99.90;;;;;;5126039;27;20028;-86
2022/01/17 06:17:54;;;;;;;;;;;6.10;99.90;;;;;;5140178;27;20067;-86
2022/01/17 06:20:38;;;;;;;;;;;6.50;99.90;;;;;;5140328;27;20286;-85
2022/01/17 06:23:25;;;;;;;;;;;6.20;99.90;;;;;;5126098;27;19918;-86
2022/01/17 06:26:09;;;;;;;;;;;6.60;99.90;;;;;;5155351;27;19913;-86
2022/01/17 06:28:53;;;;;;;;;;;7.40;99.90;;;;;;5138115;27;19913;-88
2022/01/17 06:31:39;;;;;;;;;;;6.10;99.90;;;;;;5138559;27;20353;-85
2022/01/17 06:34:24;;;;;;;;;;;6.10;99.90;;;;;;5154749;27;19922;-85
2022/01/17 06:37:08;;;;;;;;;;;6.10;99.90;;;;;;5154018;27;19917;-85
2022/01/17 06:39:54;;;;;;;;;;;7.50;99.90;;;;;;5135517;27;19914;-85
2022/01/17 06:42:39;;;;;;;;;;;6.20;99.90;;;;;;5149878;27;20315;-85
2022/01/17 06:45:23;;;;;;;;;;;6.20;99.90;;;;;;5137528;27;19914;-85
2022/01/17 06:48:07;;;;;;;;;;;4.00;99.90;;;;;;5122340;27;19918;-84
2022/01/17 06:50:51;;;;;;;;;;;6.20;99.90;;;;;;5151519;27;19945;-85
2022/01/17 06:53:36;;;;;;;;;;;7.20;99.90;;;;;;5138928;27;20648;-85
2022/01/17 06:56:20;;;;;;;;;;;6.10;99.90;;;;;;5133891;27;20464;-85
2022/01/17 06:59:04;;;;;;;;;;;6.10;99.90;;;;;;5118805;27;20663;-85
2022/01/17 07:01:48;;;;;;;;;;;6.10;99.90;;;;;;5137517;27;20373;-84
2022/01/17 07:04:33;;;;;;;;;;;6.10;99.90;;;;;;5120892;27;20030;-85
2022/01/17 07:07:17;;;;;;;;;;;6.10;99.90;;;;;;5107088;27;20635;-85
2022/01/17 07:10:02;;;;;;;;;;;6.00;99.90;;;;;;5121609;27;20533;-84
2022/01/17 07:12:47;;;;;;;;;;;6.10;99.90;;;;;;5136219;27;19930;-84
2022/01/17 07:15:31;;;;;;;;;;;6.70;99.90;;;;;;5119878;27;19933;-84
2022/01/17 07:18:15;;;;;;;;;;;6.10;99.90;;;;;;5120881;27;20724;-87
2022/01/17 07:20:59;;;;;;;;;;;6.60;99.90;;;;;;5141137;27;19934;-85
2022/01/17 07:23:43;;;;;;;;;;;6.10;99.90;;;;;;5123239;27;19918;-85
2022/01/17 07:26:27;;;;;;;;;;;6.70;99.90;;;;;;5122827;27;20413;-85
2022/01/17 07:29:13;;;;;;;;;;;6.10;99.90;;;;;;5121190;27;19960;-84
2022/01/17 07:31:57;;;;;;;;;;;6.20;99.90;;;;;;5113216;27;20425;-84
2022/01/17 07:34:41;;;;;;;;;;;8.30;99.90;;;;;;5094619;28;19972;-84
2022/01/17 07:37:26;;;;;;;;;;;8.50;99.90;;;;;;5098009;28;20370;-85
2022/01/17 07:40:10;;;;;;;;;;;6.20;99.90;;;;;;5095599;28;19956;-84
2022/01/17 07:42:54;;;;;;;;;;;6.10;99.90;;;;;;5095301;28;20389;-84
2022/01/17 07:45:46;;;;;;;;;;;7.20;99.90;;;;;;5097164;28;20660;-84
2022/01/17 07:51:20;;;;;;;;;;;6.20;99.90;;;;;;5076026;28;20484;-84
2022/01/17 07:54:05;;;;;;;;;;;6.20;99.90;;;;;;5098095;28;19935;-84
2022/01/17 07:56:49;;;;;;;;;;;6.20;99.90;;;;;;5080118;28;20177;-84
2022/01/17 07:59:33;;;;;;;;;;;6.20;99.90;;;;;;5076854;28;19923;-84
2022/01/17 08:02:17;;;;;;;;;;;6.20;99.90;;;;;;5070629;28;19969;-84
2022/01/17 08:05:02;;;;;;;;;;;6.30;99.90;;;;;;5075975;28;19958;-84
2022/01/17 08:07:46;;;;;;;;;;;6.30;99.90;;;;;;5085895;28;19966;-84
2022/01/17 08:10:31;;;;;;;;;;;7.90;99.90;;;;;;5094467;28;19919;-84
2022/01/17 08:13:15;;;;;;;;;;;6.30;99.90;;;;;;5111688;28;20447;-84
2022/01/17 08:16:02;;;;;;;;;;;6.30;99.90;;;;;;5092417;28;19934;-84
2022/01/17 08:18:46;;;;;;;;;;;6.30;99.90;;;;;;5091864;28;19919;-85
2022/01/17 08:21:30;;;;;;;;;;;7.40;99.90;;;;;;5080451;28;20394;-85
2022/01/17 08:24:14;;;;;;;;;;;6.40;99.90;;;;;;5097084;28;19919;-84
2022/01/17 08:26:59;;;;;;;;;;;6.90;99.90;;;;;;5115562;28;19960;-84
2022/01/17 08:29:43;;;;;;;;;;;7.40;99.90;;;;;;5116177;28;19937;-84
2022/01/17 08:32:30;;;;;;;;;;;6.50;99.90;;;;;;5123938;27;20395;-84
2022/01/17 08:35:14;;;;;;;;;;;6.50;99.90;;;;;;5121827;27;20391;-84
2022/01/17 08:37:59;;;;;;;;;;;6.50;99.90;;;;;;5136822;27;20409;-84
2022/01/17 08:40:43;;;;;;;;;;;6.60;99.90;;;;;;5137513;27;20420;-84
2022/01/17 08:43:27;;;;;;;;;;;6.60;99.90;;;;;;5137364;27;20278;-84
2022/01/17 08:46:11;;;;;;;;;;;6.60;99.90;;;;;;5120993;27;19960;-85
2022/01/17 08:48:55;;;;;;;;;;;6.60;99.90;;;;;;5141251;27;19998;-84
2022/01/17 08:51:40;;;;;;;;;;;6.70;99.90;;;;;;5125100;27;19922;-84
2022/01/17 08:54:24;;;;;;;;;;;6.70;99.90;;;;;;5141709;27;19937;-84
2022/01/17 08:57:08;;;;;;;;;;;6.70;99.90;;;;;;5157413;27;19955;-84
2022/01/17 08:59:52;;;;;;;;;;;6.70;99.90;;;;;;5152116;27;19919;-84
2022/01/17 09:02:36;;;;;;;;;;;6.70;99.90;;;;;;5121610;27;19918;-84
2022/01/17 09:05:21;;;;;;;;;;;8.80;99.90;;;;;;5136483;27;20040;-84
2022/01/17 09:08:05;;;;;;;;;;;6.80;99.90;;;;;;5120767;27;19918;-84
2022/01/17 09:10:52;;;;;;;;;;;6.90;99.90;;;;;;5136683;27;19945;-84
2022/01/17 09:13:35;;;;;;;;;;;7.90;99.90;;;;;;5121104;27;20378;-84
2022/01/17 09:16:20;;;;;;;;;;;7.00;99.90;;;;;;5120438;27;19918;-84
2022/01/17 09:19:05;;;;;;;;;;;7.10;99.90;;;;;;5120502;27;19952;-85
2022/01/17 09:21:49;;;;;;;;;;;7.20;99.90;;;;;;5120844;27;19969;-85
2022/01/17 09:24:34;;;;;;;;;;;9.20;99.90;;;;;;5133316;27;19918;-83
2022/01/17 09:27:16;;;;;;;26.27;4.97;;;7.20;99.90;;;;;;5123113;27;1977640;-82
2022/01/17 09:30:02;;;;;;;28.85;5.05;;;7.40;99.90;;;;;;5156470;27;20041;-82
2022/01/17 09:32:48;;;;;;;28.95;5.07;;;7.50;99.90;;;;;;5158956;27;20115;-83
2022/01/17 09:35:34;;;;;;;32.70;5.97;;;7.60;99.90;;;;;;5135784;27;20046;-89
2022/01/17 09:38:24;;;;;;;33.70;6.72;;;7.70;99.90;;;;;;5135462;27;20034;-88
2022/01/17 09:41:09;;;;;;;35.53;6.03;;;8.20;99.90;;;;;;5151870;27;20037;-85
2022/01/17 09:43:53;;;;;;;40.50;6.28;;;7.90;99.90;;;;;;5171950;27;20059;-87
2022/01/17 09:46:42;;;;;;;29.10;4.90;;;8.30;99.90;;;;;;5139287;27;20100;-86
2022/01/17 09:55:24;;;;;;;32.67;5.32;;;8.60;99.90;;;;;;5162427;27;20045;-87
2022/01/17 09:58:09;;;;;;;30.13;5.90;;;8.10;99.90;;;;;;5150046;27;20030;-87
2022/01/17 10:00:54;;;;;;;38.85;5.95;;;8.20;99.90;;;;;;5150286;27;20184;-88
2022/01/17 10:03:39;;;;;;;41.53;6.72;;;8.30;99.90;;;;;;5105803;27;20074;-87
2022/01/17 10:06:26;;;;;;;45.72;7.28;;;8.40;99.90;;;;;;5133934;27;20168;-87
2022/01/17 10:09:10;;;;;;;50.33;7.70;;;8.40;99.90;;;;;;5134216;27;20235;-86
2022/01/17 10:12:09;;;;;;;32.63;5.50;;;8.50;99.90;;;;;;5134330;27;20050;-87
2022/01/17 10:15:00;;;;;;;32.35;6.20;;;8.50;99.90;;;;;;5134235;27;20083;-87
2022/01/17 10:17:47;;;;;;;42.30;8.40;;;8.60;99.90;;;;;;5134247;27;20076;-87
2022/01/17 10:20:46;;;;;;;42.20;6.13;;;8.70;99.90;;;;;;5149343;27;20038;-88
2022/01/17 10:23:46;;;;;;;44.85;7.15;;;8.70;99.90;;;;;;5118950;27;20042;-87
2022/01/17 10:35:38;;;;;;;37.80;6.65;;;8.90;99.90;;;;;;5148610;27;20120;-87
2022/01/17 10:38:24;;;;;;;38.97;7.30;;;8.90;99.90;;;;;;5136435;27;20038;-87
2022/01/17 10:41:09;;;;;;;34.58;6.50;;;8.90;99.90;;;;;;5106123;27;20494;-86
2022/01/17 10:43:53;;;;;;;35.33;6.57;;;9.00;99.90;;;;;;5135516;27;20451;-87
2022/01/17 10:46:37;;;;;;;40.65;9.50;;;9.00;99.90;;;;;;5116354;27;20046;-87
2022/01/17 10:49:21;;;;;;;40.28;6.95;;;9.00;99.90;;;;;;5118615;27;20087;-86
2022/01/17 10:52:11;;;;;;;;;;;9.00;99.90;;;;;;5105807;27;20038;-87
2022/01/17 10:55:00;;;;;;;37.08;6.47;;;9.00;99.90;;;;;;5125275;27;19980;-85
2022/01/17 10:57:49;;;;;;;36.35;6.90;;;9.10;99.90;;;;;;5135635;27;20391;-86
2022/01/17 11:00:41;;;;;;;37.53;6.78;;;9.00;99.90;;;;;;5108887;27;20042;-87
2022/01/17 11:03:28;;;;;;;37.95;6.60;;;9.00;99.90;;;;;;5136205;27;20087;-86
2022/01/17 11:06:20;;;;;;;35.85;7.72;;;9.00;99.90;;;;;;5131714;27;20410;-86
2022/01/17 11:09:05;;;;;;;42.58;8.75;;;9.00;99.90;;;;;;5135322;27;20058;-86
2022/01/17 11:11:52;;;;;;;34.88;8.02;;;9.10;99.90;;;;;;5129305;27;20061;-89
2022/01/17 11:14:39;;;;;;;35.30;7.65;;;9.10;99.90;;;;;;5105169;27;20518;-86
2022/01/17 11:17:33;;;;;;;50.47;7.53;;;9.10;99.90;;;;;;5123098;27;20580;-83
2022/01/17 11:20:25;;;;;;;35.13;7.28;;;9.70;99.90;;;;;;5119308;27;20041;-88
2022/01/17 11:23:12;;;;;;;37.85;7.57;;;8.40;99.90;;;;;;5119287;27;20074;-86
2022/01/17 11:25:58;;;;;;;42.38;6.88;;;9.10;99.90;;;;;;5118888;27;20155;-88
2022/01/17 11:28:43;;;;;;;38.88;7.75;;;9.20;99.90;;;;;;5118631;27;20111;-87
2022/01/17 11:31:27;;;;;;;40.80;7.68;;;9.30;99.90;;;;;;5118778;27;20055;-87
2022/01/17 11:34:13;;;;;;;34.78;8.55;;;9.30;99.90;;;;;;5143477;27;20061;-87
2022/01/17 11:36:59;;;;;;;36.00;8.65;;;10.50;99.90;;;;;;5143804;27;20042;-86
2022/01/17 11:39:50;;;;;;;37.05;6.82;;;9.20;99.90;;;;;;5138410;27;20444;-86
2022/01/17 11:42:44;;;;;;;41.10;6.85;;;9.30;99.90;;;;;;5119022;27;20088;-86
2022/01/17 11:45:28;;;;;;;;;;;9.30;99.90;;;;;;5135028;27;20034;-87
2022/01/17 11:48:22;;;;;;;25.17;6.03;;;9.20;99.90;;;;;;5118936;27;19918;-86
2022/01/17 11:51:18;;;;;;;40.55;7.97;;;9.30;99.90;;;;;;5134584;27;20041;-86
2022/01/17 11:54:13;;;;;;;50.38;9.02;;;9.40;99.90;;;;;;5118123;27;20035;-88
2022/01/17 11:57:02;;;;;;;46.42;7.85;;;9.50;99.90;;;;;;5134966;27;20117;-88
2022/01/17 11:59:48;;;;;;;41.88;7.07;;;9.50;99.90;;;;;;5134504;27;20111;-86
2022/01/17 12:02:37;;;;;;;38.58;7.18;;;9.50;99.90;;;;;;5134476;27;20034;-86
2022/01/17 12:05:24;;;;;;;36.67;7.00;;;9.60;99.90;;;;;;5134708;27;20042;-87
2022/01/17 12:08:10;;;;;;;44.80;8.18;;;9.60;99.90;;;;;;5139065;27;20083;-86
2022/01/17 12:11:00;;;;;;;39.33;7.68;;;9.60;99.90;;;;;;5155122;27;20148;-87
2022/01/17 12:13:45;;;;;;;30.17;7.00;;;9.60;99.90;;;;;;5139235;27;20055;-86
2022/01/17 12:16:35;;;;;;;36.47;7.30;;;9.60;99.90;;;;;;5139528;27;20474;-86
2022/01/17 12:19:19;;;;;;;40.97;7.07;;;9.60;99.90;;;;;;5155378;27;20034;-87
2022/01/17 12:22:05;;;;;;;39.70;7.72;;;9.50;99.90;;;;;;5155414;27;20519;-86
2022/01/17 12:24:49;;;;;;;38.55;7.32;;;9.60;99.90;;;;;;5133944;27;20038;-87
2022/01/17 12:27:34;;;;;;;41.45;7.50;;;9.70;99.90;;;;;;5152531;27;20095;-88
2022/01/17 12:30:19;;;;;;;32.10;5.97;;;9.60;99.90;;;;;;5149584;27;20072;-87
2022/01/17 12:33:04;;;;;;;31.90;6.47;;;9.50;99.90;;;;;;5138040;27;20053;-88
2022/01/17 12:35:48;;;;;;;32.58;6.70;;;9.50;99.90;;;;;;5124297;27;20050;-89
2022/01/17 12:38:40;;;;;;;40.08;8.02;;;9.50;99.90;;;;;;5124452;27;20064;-88
2022/01/17 12:41:39;;;;;;;34.85;6.20;;;9.50;99.90;;;;;;5118535;27;20084;-87
2022/01/17 12:44:25;;;;;;;37.80;6.63;;;9.50;99.90;;;;;;5118466;27;20486;-88
2022/01/17 12:47:09;;;;;;;34.53;6.30;;;9.50;99.90;;;;;;5133965;27;20042;-87
2022/01/17 12:49:53;;;;;;;;;;;9.40;99.90;;;;;;5133925;27;20045;-86
2022/01/17 12:52:38;;;;;;;37.70;6.82;;;9.50;99.90;;;;;;5117754;27;19941;-86
2022/01/17 12:55:23;;;;;;;30.38;6.80;;;9.40;99.90;;;;;;5134137;27;20499;-86
2022/01/17 12:58:13;;;;;;;38.85;7.70;;;9.30;99.90;;;;;;5136557;27;20045;-84
2022/01/17 13:01:05;;;;;;;35.10;7.03;;;9.30;99.90;;;;;;5137192;27;20394;-86
2022/01/17 13:03:49;;;;;;;31.52;6.38;;;9.30;99.90;;;;;;5152768;27;20036;-84
2022/01/17 13:06:33;;;;;;;;;;;9.30;99.90;;;;;;5117430;27;20505;-85
2022/01/17 13:09:28;;;;;;;38.20;7.68;;;9.40;99.90;;;;;;5103268;27;19922;-85
2022/01/17 13:12:13;;;;;;;38.92;9.52;;;9.20;99.90;;;;;;5133734;27;20108;-86
2022/01/17 13:14:57;;;;;;;43.10;7.45;;;9.20;99.90;;;;;;5117561;27;20045;-86
2022/01/17 13:17:41;;;;;;;38.28;8.20;;;9.20;99.90;;;;;;5103391;27;20050;-85
2022/01/17 13:20:26;;;;;;;37.88;7.72;;;9.30;99.90;;;;;;5118180;27;20073;-85
2022/01/17 13:23:17;;;;;;;41.28;7.28;;;9.30;99.90;;;;;;5128452;27;20046;-85
2022/01/17 13:26:02;;;;;;;41.78;7.57;;;9.20;99.90;;;;;;5137925;27;20057;-85
2022/01/17 13:28:55;;;;;;;35.85;10.25;;;9.30;99.90;;;;;;5123848;27;20448;-85
2022/01/17 13:31:41;;;;;;;40.83;7.80;;;9.30;99.90;;;;;;5153781;27;20087;-85
2022/01/17 13:34:30;;;;;;;44.40;6.20;;;9.40;99.90;;;;;;5138327;27;20394;-86
2022/01/17 13:37:15;;;;;;;31.60;6.22;;;9.40;99.90;;;;;;5138316;27;20046;-86
2022/01/17 13:39:59;;;;;;;36.65;7.00;;;9.30;99.90;;;;;;5153291;27;20058;-86
2022/01/17 13:42:48;;;;;;;32.38;8.15;;;9.40;99.90;;;;;;5138261;27;20091;-85
2022/01/17 13:45:44;;;;;;;39.53;7.57;;;9.30;99.90;;;;;;5138445;27;20088;-86
2022/01/17 13:48:29;;;;;;;36.10;6.43;;;9.20;99.90;;;;;;5154214;27;20045;-85
2022/01/17 13:51:13;;;;;;;31.00;5.40;;;9.20;99.90;;;;;;5154008;27;20083;-86
2022/01/17 13:53:57;;;;;;;43.92;6.78;;;9.20;99.90;;;;;;5153530;27;20050;-85
2022/01/17 13:56:44;;;;;;;33.55;6.95;;;9.20;99.90;;;;;;5133180;28;20042;-85
2022/01/17 13:59:28;;;;;;;30.13;5.90;;;9.20;99.90;;;;;;5133051;28;20168;-85
2022/01/17 14:02:17;;;;;;;35.88;7.38;;;9.20;99.90;;;;;;5117403;27;20152;-85
2022/01/17 14:05:03;;;;;;;40.22;8.57;;;9.10;99.90;;;;;;5154310;27;20075;-86
2022/01/17 14:07:47;;;;;;;39.65;7.35;;;9.70;99.90;;;;;;5134014;27;20041;-86
2022/01/17 14:10:33;;;;;;;;;;;9.10;99.90;;;;;;5137881;27;20057;-85
2022/01/17 14:13:21;;;;;;;34.65;6.22;;;9.10;99.90;;;;;;5140679;27;20273;-87
2022/01/17 14:16:16;;;;;;;46.17;6.90;;;9.10;99.90;;;;;;5157279;27;20497;-87
2022/01/17 14:19:09;;;;;;;37.10;7.13;;;9.10;99.90;;;;;;5157176;27;20107;-86
2022/01/17 14:22:00;;;;;;;39.35;7.78;;;9.10;99.90;;;;;;5138061;27;20094;-85
2022/01/17 14:24:44;;;;;;;38.03;5.80;;;9.10;99.90;;;;;;5140401;27;20033;-86
2022/01/17 14:27:28;;;;;;;31.73;7.10;;;9.00;99.90;;;;;;5140913;27;20505;-85
2022/01/17 14:30:13;;;;;;;53.60;7.47;;;9.10;99.90;;;;;;5134807;27;20091;-86
2022/01/17 14:33:09;;;;;;;;;;;9.00;99.90;;;;;;5152786;27;20029;-85
2022/01/17 14:36:12;;;;;;;33.47;6.10;;;9.00;99.90;;;;;;5140130;27;20338;-86
2022/01/17 14:38:58;;;;;;;33.25;5.93;;;8.90;99.90;;;;;;5155876;27;20523;-85
2022/01/17 14:41:47;;;;;;;29.02;6.20;;;8.90;99.90;;;;;;5141201;27;20071;-87
2022/01/17 14:44:37;;;;;;;30.45;6.07;;;8.80;99.90;;;;;;5156350;27;20065;-86
2022/01/17 14:47:22;;;;;;;38.55;6.88;;;8.80;99.90;;;;;;5140588;27;20075;-86
2022/01/17 14:50:08;;;;;;;44.47;8.90;;;8.80;99.90;;;;;;5139678;27;20046;-86
2022/01/17 14:52:54;;;;;;;36.85;6.80;;;8.80;99.90;;;;;;5136990;27;20042;-85
2022/01/17 14:59:33;;;;;;;42.70;8.55;;;8.80;99.90;;;;;;5136902;27;20551;-85
2022/01/17 15:02:39;;;;;;;30.40;7.13;;;8.80;99.90;;;;;;5143353;27;20386;-85
2022/01/17 15:04:58;;;;;;;29.95;6.13;;;8.80;99.90;;;;;;5154986;27;20038;-86
2022/01/17 15:07:48;;;;;;;36.97;6.57;;;8.70;99.90;;;;;;5156018;27;20049;-88
2022/01/17 15:10:33;;;;;;;43.55;8.65;;;8.60;99.90;;;;;;5140210;27;20156;-86
2022/01/17 15:13:18;;;;;;;34.95;7.38;;;8.60;99.90;;;;;;5153007;27;20091;-86
2022/01/17 15:16:02;;;;;;;39.95;8.05;;;8.60;99.90;;;;;;5108366;27;20110;-86
2022/01/17 15:18:46;;;;;;;37.20;8.25;;;8.60;99.90;;;;;;5126123;27;20037;-86
2022/01/17 15:21:31;;;;;;;39.55;6.55;;;8.60;99.90;;;;;;5126129;27;20037;-86
2022/01/17 15:24:15;;;;;;;38.83;7.85;;;8.60;99.90;;;;;;5139795;27;20492;-86
2022/01/17 15:27:00;;;;;;;34.40;6.05;;;8.50;99.90;;;;;;5110445;27;20523;-86
2022/01/17 15:29:45;;;;;;;44.95;7.63;;;8.80;99.90;;;;;;5111546;27;20042;-86
2022/01/17 15:32:29;;;;;;;;;;;8.40;99.90;;;;;;5140797;27;20037;-86
2022/01/17 15:35:14;;;;;;;38.10;6.57;;;8.40;99.90;;;;;;5134614;27;19914;-85
2022/01/17 15:37:59;;;;;;;40.20;7.32;;;8.40;99.90;;;;;;5136349;27;20080;-86
2022/01/17 15:40:44;;;;;;;46.28;7.13;;;8.40;99.90;;;;;;5119962;27;20126;-86
2022/01/17 15:43:28;;;;;;;38.75;8.60;;;8.30;99.90;;;;;;5119554;27;20053;-87
2022/01/17 15:46:16;;;;;;;44.03;7.35;;;8.30;99.90;;;;;;5104451;27;20115;-86
2022/01/17 15:49:01;;;;;;;46.78;6.93;;;8.30;99.90;;;;;;5134270;27;20111;-85
2022/01/17 15:51:45;;;;;;;36.88;6.47;;;8.30;99.90;;;;;;5090602;27;20073;-86
2022/01/17 15:54:31;;;;;;;39.20;8.18;;;8.20;99.90;;;;;;5104903;27;20038;-87
2022/01/17 15:57:16;;;;;;;44.33;7.07;;;8.30;99.90;;;;;;5141359;27;20102;-86
2022/01/17 16:00:03;;;;;;;40.05;6.90;;;8.30;99.90;;;;;;5125862;27;20030;-85
2022/01/17 16:02:48;;;;;;;41.47;7.05;;;8.20;99.90;;;;;;5139619;27;20038;-86
2022/01/17 16:05:32;;;;;;;40.90;6.68;;;8.20;99.90;;;;;;5138576;27;20087;-87
2022/01/17 16:08:17;;;;;;;30.45;6.13;;;8.20;99.90;;;;;;5107609;27;20079;-86